Time;durP1;ratioP1;P1;durP2;ratioP2;P2;SDS_P1;SDS_P2;PMS_P1;PMS_P2;Temp;Humidity;BMP_temperature;BMP_pressure;BME280_temperature;BME280_humidity;BME280_pressure;Samples;Min_cycle;Max_cycle;Signal;HPM_P1;HPM_P2
2022/05/28 00:01:11;;;;;;;0.10;0.10;;;10.30;99.90;;;;;;5050435;28;20041;-87
2022/05/28 00:03:38;;;;;;;0.28;0.08;;;10.30;99.90;;;;;;5050106;28;20049;-83
2022/05/28 00:06:17;;;;;;;0.10;0.10;;;10.30;99.90;;;;;;5066609;28;20045;-83
2022/05/28 00:08:44;;;;;;;0.10;0.10;;;10.30;99.90;;;;;;5050373;28;20038;-83
2022/05/28 00:11:15;;;;;;;0.00;0.00;;;10.30;99.90;;;;;;5034090;28;20038;-87
2022/05/28 00:13:43;;;;;;;0.10;0.10;;;10.20;99.90;;;;;;5050443;28;20040;-83
2022/05/28 00:16:11;;;;;;;0.03;0.03;;;10.20;99.90;;;;;;5033777;28;20033;-83
2022/05/28 00:18:40;;;;;;;0.10;0.10;;;10.20;99.90;;;;;;5066609;28;20045;-86
2022/05/28 00:21:08;;;;;;;0.00;0.00;;;10.20;99.90;;;;;;5037370;28;20072;-83
2022/05/28 00:23:36;;;;;;;0.00;0.00;;;10.10;99.90;;;;;;5086346;28;20047;-83
2022/05/28 00:26:04;;;;;;;0.00;0.00;;;10.00;99.90;;;;;;5053129;28;20066;-83
2022/05/28 00:28:31;;;;;;;0.00;0.00;;;10.00;99.90;;;;;;5037240;28;20075;-83
2022/05/28 00:30:59;;;;;;;0.10;0.10;;;10.00;99.90;;;;;;5069579;28;20036;-87
2022/05/28 00:33:27;;;;;;;0.10;0.10;;;10.00;99.90;;;;;;5037657;28;20040;-83
2022/05/28 00:35:54;;;;;;;0.10;0.10;;;10.00;99.90;;;;;;5053562;28;20033;-83
2022/05/28 00:38:20;;;;;;;0.00;0.00;;;9.90;99.90;;;;;;5069174;28;20049;-86
2022/05/28 00:40:49;;;;;;;0.00;0.00;;;9.90;99.90;;;;;;5053484;28;20075;-87
2022/05/28 00:43:16;;;;;;;0.00;0.00;;;9.90;99.90;;;;;;5069599;28;20052;-87
2022/05/28 00:45:46;;;;;;;0.00;0.00;;;9.90;99.90;;;;;;5069431;28;20743;-82
2022/05/28 00:48:17;;;;;;;0.10;0.10;;;9.80;99.90;;;;;;5069166;28;20040;-84
2022/05/28 00:50:44;;;;;;;0.20;0.10;;;9.80;99.90;;;;;;5069457;28;20041;-87
2022/05/28 00:53:11;;;;;;;0.10;0.10;;;9.80;99.90;;;;;;5069978;28;20478;-83
2022/05/28 00:55:38;;;;;;;0.10;0.10;;;9.70;99.90;;;;;;5053160;28;20049;-87
2022/05/28 00:58:07;;;;;;;0.00;0.00;;;9.60;99.90;;;;;;5052795;28;20044;-86
2022/05/28 01:00:36;;;;;;;0.10;0.10;;;9.60;99.90;;;;;;5069598;28;20077;-82
2022/05/28 01:03:23;;;;;;;0.10;0.10;;;9.60;99.90;;;;;;5069429;28;20044;-87
2022/05/28 01:06:08;;;;;;;0.10;0.10;;;9.60;99.90;;;;;;5069855;28;20494;-87
2022/05/28 01:08:43;;;;;;;0.00;0.00;;;9.60;99.90;;;;;;5069924;28;20110;-87
2022/05/28 01:11:27;;;;;;;0.10;0.10;;;9.50;99.90;;;;;;5069629;28;20076;-87
2022/05/28 01:14:00;;;;;;;0.10;0.10;;;9.50;99.90;;;;;;5086014;28;20063;-82
2022/05/28 01:16:48;;;;;;;0.10;0.10;;;9.60;99.90;;;;;;5072220;28;20791;-87
2022/05/28 01:19:33;;;;;;;0.10;0.10;;;9.40;99.90;;;;;;5073570;28;20437;-87
2022/05/28 01:22:25;;;;;;;0.10;0.10;;;9.50;99.90;;;;;;5089685;28;20083;-82
2022/05/28 01:25:14;;;;;;;0.10;0.10;;;9.50;99.90;;;;;;5089637;28;20497;-82
2022/05/28 01:27:46;;;;;;;0.10;0.10;;;9.50;99.90;;;;;;5089869;28;20072;-86
2022/05/28 01:30:15;;;;;;;0.00;0.00;;;9.40;99.90;;;;;;5089865;28;20079;-87
2022/05/28 01:32:44;;;;;;;0.10;0.10;;;9.40;99.90;;;;;;5056626;28;20635;-82
2022/05/28 01:35:15;;;;;;;0.10;0.10;;;9.50;99.90;;;;;;5073249;28;20041;-82
2022/05/28 01:37:44;;;;;;;0.03;0.03;;;9.50;99.90;;;;;;5084744;28;20056;-87
2022/05/28 01:40:12;;;;;;;0.00;0.00;;;9.50;99.90;;;;;;5092662;28;20044;-82
2022/05/28 01:42:44;;;;;;;0.10;0.10;;;9.50;99.90;;;;;;5093210;28;20119;-82
2022/05/28 01:45:14;;;;;;;0.10;0.10;;;9.50;99.90;;;;;;5092686;28;20036;-86
2022/05/28 01:47:43;;;;;;;0.05;0.05;;;9.50;99.90;;;;;;5092634;28;20044;-87
2022/05/28 01:50:13;;;;;;;0.10;0.10;;;9.50;99.90;;;;;;5059464;28;20123;-83
2022/05/28 01:52:41;;;;;;;0.10;0.10;;;9.50;99.90;;;;;;5093023;28;20040;-87
2022/05/28 01:55:10;;;;;;;0.10;0.10;;;9.40;99.90;;;;;;5060162;28;20047;-87
2022/05/28 01:57:37;;;;;;;0.00;0.00;;;9.40;99.90;;;;;;5093006;28;20032;-83
2022/05/28 02:00:05;;;;;;;0.10;0.10;;;9.40;99.90;;;;;;5059716;28;20417;-83
2022/05/28 02:02:32;;;;;;;0.00;0.00;;;9.50;99.90;;;;;;5085329;28;20111;-82
2022/05/28 02:04:59;;;;;;;0.10;0.10;;;9.50;99.90;;;;;;5056246;28;20041;-83
2022/05/28 02:07:26;;;;;;;0.10;0.10;;;9.50;99.90;;;;;;5055531;28;20080;-82
2022/05/28 02:09:59;;;;;;;0.10;0.10;;;9.50;99.90;;;;;;5055979;28;20072;-83
2022/05/28 02:12:31;;;;;;;0.10;0.10;;;9.60;99.90;;;;;;5072276;28;20147;-87
2022/05/28 02:15:06;;;;;;;0.10;0.10;;;9.60;99.90;;;;;;5081093;28;20036;-84
2022/05/28 02:17:35;;;;;;;0.08;0.08;;;9.60;99.90;;;;;;5092121;28;20036;-83
2022/05/28 02:20:05;;;;;;;0.10;0.10;;;9.60;99.90;;;;;;5092230;28;20079;-87
2022/05/28 02:22:56;;;;;;;0.00;0.00;;;9.60;99.90;;;;;;5092414;28;20040;-82
2022/05/28 02:25:53;;;;;;;0.10;0.10;;;9.60;99.90;;;;;;5109007;28;20040;-87
2022/05/28 02:28:23;;;;;;;0.10;0.10;;;9.60;99.90;;;;;;5074661;28;20040;-87
2022/05/28 02:31:02;;;;;;;0.10;0.10;;;9.60;99.90;;;;;;5055901;28;20047;-87
2022/05/28 02:33:32;;;;;;;0.10;0.10;;;9.60;99.90;;;;;;5056555;28;20045;-83
2022/05/28 02:35:59;;;;;;;0.10;0.10;;;9.50;99.90;;;;;;5071844;28;20090;-87
2022/05/28 02:38:26;;;;;;;0.00;0.00;;;9.50;99.90;;;;;;5071632;28;20060;-83
2022/05/28 02:40:54;;;;;;;0.03;0.03;;;9.50;99.90;;;;;;5088429;28;20036;-83
2022/05/28 02:43:22;;;;;;;0.10;0.10;;;9.50;99.90;;;;;;5055521;28;20091;-82
2022/05/28 02:45:49;;;;;;;0.10;0.10;;;9.70;99.90;;;;;;5071495;28;20036;-86
2022/05/28 02:48:16;;;;;;;0.10;0.10;;;9.60;99.90;;;;;;5054834;28;20044;-82
2022/05/28 02:50:42;;;;;;;0.10;0.10;;;9.50;99.90;;;;;;5055497;28;20083;-85
2022/05/28 02:53:11;;;;;;;0.10;0.10;;;9.50;99.90;;;;;;5055437;28;20094;-83
2022/05/28 02:55:38;;;;;;;0.00;0.00;;;9.70;99.90;;;;;;5071581;28;20044;-83
2022/05/28 02:58:05;;;;;;;0.00;0.00;;;9.50;99.90;;;;;;5055167;28;20037;-87
2022/05/28 03:00:32;;;;;;;0.05;0.05;;;9.50;99.90;;;;;;5054812;28;20069;-86
2022/05/28 03:02:58;;;;;;;0.10;0.10;;;9.50;99.90;;;;;;5070815;28;20037;-82
2022/05/28 03:05:26;;;;;;;0.00;0.00;;;9.50;99.90;;;;;;5054376;28;20079;-86
2022/05/28 03:07:53;;;;;;;0.10;0.10;;;9.50;99.90;;;;;;5070872;28;20524;-86
2022/05/28 03:10:20;;;;;;;0.00;0.00;;;9.40;99.90;;;;;;5087861;28;20075;-82
2022/05/28 03:12:46;;;;;;;0.10;0.10;;;9.40;99.90;;;;;;5054277;28;20048;-82
2022/05/28 03:15:13;;;;;;;0.00;0.00;;;9.30;99.90;;;;;;5087592;28;20080;-83
2022/05/28 03:17:40;;;;;;;0.10;0.10;;;9.30;99.90;;;;;;5087239;28;20406;-87
2022/05/28 03:20:07;;;;;;;0.20;0.20;;;9.30;99.90;;;;;;5054770;28;20048;-86
2022/05/28 03:22:34;;;;;;;0.10;0.10;;;9.20;99.90;;;;;;5053892;28;20041;-82
2022/05/28 03:25:00;;;;;;;0.13;0.10;;;9.30;99.90;;;;;;5054410;28;20063;-82
2022/05/28 03:27:27;;;;;;;0.10;0.10;;;9.30;99.90;;;;;;5054386;28;20046;-83
2022/05/28 03:29:54;;;;;;;0.10;0.10;;;9.30;99.90;;;;;;5070610;28;20095;-82
2022/05/28 03:32:20;;;;;;;0.03;0.03;;;9.30;99.90;;;;;;5054014;28;20037;-86
2022/05/28 03:34:47;;;;;;;0.13;0.13;;;9.20;99.90;;;;;;5054341;28;20041;-83
2022/05/28 03:37:14;;;;;;;0.10;0.10;;;9.20;99.90;;;;;;5045728;28;20513;-87
2022/05/28 03:39:41;;;;;;;0.10;0.10;;;9.20;99.90;;;;;;5057884;28;20072;-82
2022/05/28 03:42:07;;;;;;;0.10;0.10;;;9.20;99.90;;;;;;5070030;28;20064;-86
2022/05/28 03:44:34;;;;;;;0.10;0.10;;;9.20;99.90;;;;;;5070216;28;20501;-83
2022/05/28 03:47:01;;;;;;;0.00;0.00;;;9.20;99.90;;;;;;5070243;28;20090;-87
2022/05/28 03:49:35;;;;;;;0.10;0.10;;;9.20;99.90;;;;;;5037547;28;20049;-87
2022/05/28 03:52:02;;;;;;;0.10;0.10;;;9.30;99.90;;;;;;5070683;28;20051;-82
2022/05/28 03:54:29;;;;;;;0.00;0.00;;;9.30;99.90;;;;;;5053985;28;20056;-87
2022/05/28 03:57:00;;;;;;;0.10;0.10;;;9.30;99.90;;;;;;5054251;28;20083;-86
2022/05/28 03:59:26;;;;;;;0.10;0.10;;;9.30;99.90;;;;;;5070249;28;20052;-87
2022/05/28 04:01:53;;;;;;;0.22;0.22;;;9.40;99.90;;;;;;5070073;28;20032;-87
2022/05/28 04:04:20;;;;;;;0.03;0.03;;;9.40;99.90;;;;;;5069885;28;20037;-82
2022/05/28 04:06:47;;;;;;;0.20;0.20;;;9.40;99.90;;;;;;5071504;28;20041;-86
2022/05/28 04:09:14;;;;;;;0.05;0.05;;;9.40;99.90;;;;;;5073628;28;20455;-86
2022/05/28 04:11:41;;;;;;;2.20;1.50;;;9.50;99.90;;;;;;5056966;28;20040;-86
2022/05/28 04:14:07;;;;;;;0.15;0.15;;;9.60;99.90;;;;;;5073198;28;20058;-87
2022/05/28 04:16:35;;;;;;;0.43;0.20;;;9.60;99.90;;;;;;5089885;28;20043;-86
2022/05/28 04:19:01;;;;;;;0.00;0.00;;;9.70;99.90;;;;;;5073443;28;20040;-83
2022/05/28 04:21:28;;;;;;;0.10;0.10;;;9.70;99.90;;;;;;5069421;28;20135;-83
2022/05/28 04:23:55;;;;;;;0.03;0.03;;;9.80;99.90;;;;;;5057029;28;20040;-83
2022/05/28 04:26:21;;;;;;;0.10;0.10;;;9.80;99.90;;;;;;5073214;28;20079;-86
2022/05/28 04:28:48;;;;;;;0.10;0.10;;;9.90;99.90;;;;;;5056692;28;20072;-86
2022/05/28 04:31:15;;;;;;;0.10;0.10;;;9.90;99.90;;;;;;5057203;28;20052;-87
2022/05/28 04:33:41;;;;;;;0.00;0.00;;;9.90;99.90;;;;;;5089690;28;20036;-83
2022/05/28 04:36:08;;;;;;;0.10;0.10;;;9.90;99.90;;;;;;5057134;28;20402;-87
2022/05/28 04:38:35;;;;;;;0.10;0.10;;;10.00;99.90;;;;;;5072796;28;20494;-83
2022/05/28 04:41:02;;;;;;;0.10;0.10;;;10.00;99.90;;;;;;5090027;28;20469;-83
2022/05/28 04:43:28;;;;;;;0.10;0.10;;;10.10;99.90;;;;;;5089921;28;20052;-86
2022/05/28 04:45:55;;;;;;;0.08;0.08;;;10.00;99.90;;;;;;5059698;28;20041;-83
2022/05/28 04:48:22;;;;;;;0.00;0.00;;;10.00;99.90;;;;;;5086039;28;20044;-87
2022/05/28 04:50:49;;;;;;;0.10;0.10;;;10.00;99.90;;;;;;5052172;28;20037;-86
2022/05/28 04:53:15;;;;;;;0.10;0.10;;;9.90;99.90;;;;;;5069861;28;20079;-87
2022/05/28 04:55:44;;;;;;;0.00;0.00;;;9.90;99.90;;;;;;5053152;28;20041;-87
2022/05/28 04:58:12;;;;;;;0.10;0.10;;;9.90;99.90;;;;;;5036993;28;20076;-82
2022/05/28 05:00:41;;;;;;;0.05;0.05;;;9.90;99.90;;;;;;5068947;28;20120;-82
2022/05/28 05:03:07;;;;;;;0.10;0.10;;;9.90;99.90;;;;;;5069449;28;20029;-86
2022/05/28 05:05:34;;;;;;;0.00;0.00;;;10.30;99.90;;;;;;5069525;28;20064;-87
2022/05/28 05:08:01;;;;;;;0.10;0.10;;;9.90;99.90;;;;;;5069482;28;20123;-86
2022/05/28 05:10:27;;;;;;;0.00;0.00;;;9.90;99.90;;;;;;5052802;28;20037;-82
2022/05/28 05:12:54;;;;;;;0.00;0.00;;;9.90;99.90;;;;;;5078336;28;20049;-86
2022/05/28 05:15:21;;;;;;;0.05;0.05;;;9.90;99.90;;;;;;5072891;28;20042;-86
2022/05/28 05:17:48;;;;;;;0.80;0.35;;;9.90;99.90;;;;;;5072251;28;20052;-83
2022/05/28 05:20:15;;;;;;;0.10;0.10;;;9.90;99.90;;;;;;5072872;28;20486;-82
2022/05/28 05:22:41;;;;;;;0.00;0.00;;;10.00;99.90;;;;;;5072331;28;20575;-83
2022/05/28 05:25:10;;;;;;;0.00;0.00;;;10.30;99.90;;;;;;5063495;28;20116;-86
2022/05/28 05:27:37;;;;;;;0.03;0.03;;;10.40;99.90;;;;;;5052555;28;20477;-86
2022/05/28 05:30:05;;;;;;;0.10;0.10;;;10.30;99.90;;;;;;5069513;28;20076;-82
2022/05/28 05:32:31;;;;;;;0.00;0.00;;;10.40;99.90;;;;;;5069259;28;20096;-85
2022/05/28 05:34:58;;;;;;;0.00;0.00;;;10.50;99.90;;;;;;5052597;28;20481;-86
2022/05/28 05:37:25;;;;;;;0.10;0.10;;;10.60;99.90;;;;;;5065370;28;20106;-83
2022/05/28 05:39:52;;;;;;;0.10;0.10;;;10.60;99.90;;;;;;5072411;28;20047;-82
2022/05/28 05:42:18;;;;;;;0.10;0.03;;;10.70;99.90;;;;;;5065872;28;20032;-86
2022/05/28 05:44:46;;;;;;;0.10;0.10;;;10.80;99.90;;;;;;5071771;28;20126;-86
2022/05/28 05:47:13;;;;;;;0.00;0.00;;;10.80;99.90;;;;;;5071584;28;20098;-83
2022/05/28 05:49:39;;;;;;;0.03;0.03;;;10.90;99.90;;;;;;5075797;28;20040;-83
2022/05/28 05:52:07;;;;;;;0.10;0.10;;;10.90;99.90;;;;;;5056084;28;20512;-86
2022/05/28 05:54:33;;;;;;;0.10;0.10;;;11.10;99.90;;;;;;5072391;28;20405;-84
2022/05/28 05:57:00;;;;;;;0.08;0.08;;;11.20;99.90;;;;;;5088515;28;20041;-84
2022/05/28 05:59:27;;;;;;;0.00;0.00;;;11.40;99.90;;;;;;5105438;28;20081;-86
2022/05/28 06:01:54;;;;;;;0.05;0.05;;;11.50;99.90;;;;;;5088813;28;20040;-86
2022/05/28 06:04:21;;;;;;;0.10;0.10;;;11.50;99.90;;;;;;5064764;28;20037;-86
2022/05/28 06:06:48;;;;;;;0.00;0.00;;;11.60;99.90;;;;;;5073665;28;20039;-86
2022/05/28 06:09:15;;;;;;;0.10;0.10;;;11.60;99.90;;;;;;5075789;28;20531;-86
2022/05/28 06:11:42;;;;;;;0.00;0.00;;;11.50;99.90;;;;;;5080263;28;20574;-85
2022/05/28 06:14:09;;;;;;;0.00;0.00;;;11.50;99.90;;;;;;5062241;28;20047;-84
2022/05/28 06:16:35;;;;;;;0.00;0.00;;;11.50;99.90;;;;;;5056575;28;20045;-85
2022/05/28 06:19:04;;;;;;;0.10;0.10;;;11.60;99.90;;;;;;5075305;28;20686;-85
2022/05/28 06:21:31;;;;;;;0.00;0.00;;;11.60;99.90;;;;;;5075659;28;20075;-83
2022/05/28 06:24:00;;;;;;;0.00;0.00;;;11.60;99.90;;;;;;5058776;28;20505;-86
2022/05/28 06:26:28;;;;;;;0.10;0.10;;;11.60;99.90;;;;;;5075096;28;20067;-82
2022/05/28 06:28:55;;;;;;;0.10;0.10;;;11.60;99.90;;;;;;5058746;28;20045;-83
2022/05/28 06:31:21;;;;;;;0.10;0.10;;;11.70;99.90;;;;;;5075655;28;20044;-86
2022/05/28 06:33:48;;;;;;;0.08;0.08;;;11.60;99.90;;;;;;5075290;28;20127;-84
2022/05/28 06:36:15;;;;;;;0.10;0.10;;;11.70;99.90;;;;;;5091778;28;20485;-84
2022/05/28 06:38:42;;;;;;;0.03;0.03;;;11.80;99.90;;;;;;5042223;28;20079;-85
2022/05/28 06:41:09;;;;;;;0.10;0.10;;;11.90;99.90;;;;;;5075339;28;20123;-86
2022/05/28 06:43:36;;;;;;;0.00;0.00;;;12.00;99.90;;;;;;5058406;28;20131;-85
2022/05/28 06:46:05;;;;;;;0.10;0.10;;;12.20;99.90;;;;;;5058056;28;20071;-85
2022/05/28 06:48:32;;;;;;;0.13;0.13;;;12.30;99.90;;;;;;5074871;28;20045;-81
2022/05/28 06:51:02;;;;;;;0.05;0.05;;;12.40;99.90;;;;;;5074937;28;20040;-81
2022/05/28 06:53:32;;;;;;;0.10;0.10;;;12.40;99.90;;;;;;5058903;28;20041;-86
2022/05/28 06:55:58;;;;;;;0.00;0.00;;;12.50;99.90;;;;;;5074783;28;20109;-84
2022/05/28 06:58:25;;;;;;;0.10;0.10;;;12.70;99.90;;;;;;5073164;28;20060;-89
2022/05/28 07:00:52;;;;;;;0.08;0.08;;;12.80;99.90;;;;;;5050335;28;20405;-86
2022/05/28 07:03:22;;;;;;;0.00;0.00;;;12.90;99.90;;;;;;5072914;28;20051;-87
2022/05/28 07:05:49;;;;;;;0.10;0.10;;;12.70;99.90;;;;;;5083631;28;20861;-84
2022/05/28 07:08:16;;;;;;;0.10;0.10;;;12.50;99.90;;;;;;5052555;28;20140;-85
2022/05/28 07:10:47;;;;;;;0.00;0.00;;;12.30;99.90;;;;;;5107705;28;20050;-84
2022/05/28 07:13:15;;;;;;;0.10;0.10;;;12.40;99.90;;;;;;5091172;28;20114;-86
2022/05/28 07:15:42;;;;;;;0.10;0.10;;;12.40;99.90;;;;;;5084688;28;20470;-85
2022/05/28 07:18:09;;;;;;;0.00;0.00;;;12.60;99.90;;;;;;5073992;28;20136;-90
2022/05/28 07:20:36;;;;;;;0.00;0.00;;;12.80;99.90;;;;;;5074843;28;20147;-87
2022/05/28 07:23:13;;;;;;;0.00;0.00;;;13.00;99.90;;;;;;5090743;28;20528;-85
2022/05/28 07:25:41;;;;;;;0.10;0.10;;;13.10;99.90;;;;;;5089787;28;20039;-85
2022/05/28 07:30:54;;;;;;;;;;;13.20;99.90;;;;;;5070825;28;20497;-87
2022/05/28 07:33:22;;;;;;;0.00;0.00;;;13.20;99.90;;;;;;5054767;28;20003;-85
2022/05/28 07:35:48;;;;;;;0.13;0.13;;;13.40;99.90;;;;;;5038314;28;20043;-86
2022/05/28 07:38:15;;;;;;;0.10;0.10;;;13.40;99.90;;;;;;5060357;28;20056;-85
2022/05/28 07:40:42;;;;;;;0.30;0.17;;;13.60;99.90;;;;;;5057695;28;20036;-86
2022/05/28 07:43:12;;;;;;;0.10;0.10;;;13.70;99.90;;;;;;5073760;28;20036;-85
2022/05/28 07:45:42;;;;;;;0.00;0.00;;;14.00;99.90;;;;;;5075086;28;20128;-85
2022/05/28 07:48:10;;;;;;;0.85;0.30;;;13.80;99.90;;;;;;5087703;28;20044;-84
2022/05/28 07:50:37;;;;;;;0.15;0.10;;;13.60;99.90;;;;;;5073858;28;20059;-84
2022/05/28 07:53:05;;;;;;;0.10;0.10;;;13.50;99.90;;;;;;5090248;28;20433;-86
2022/05/28 07:55:32;;;;;;;0.20;0.20;;;13.50;99.90;;;;;;5073655;28;20489;-86
2022/05/28 07:58:08;;;;;;;0.08;0.08;;;13.50;99.90;;;;;;5073179;28;20041;-86
2022/05/28 08:00:40;;;;;;;0.00;0.00;;;13.60;99.90;;;;;;5078941;28;20512;-85
2022/05/28 08:03:07;;;;;;;0.00;0.00;;;13.90;99.90;;;;;;5064577;28;20033;-85
2022/05/28 08:05:35;;;;;;;0.00;0.00;;;14.10;99.90;;;;;;5087110;28;20047;-85
2022/05/28 08:08:02;;;;;;;0.00;0.00;;;14.30;99.90;;;;;;5057115;28;20073;-85
2022/05/28 08:10:29;;;;;;;0.20;0.20;;;14.30;99.90;;;;;;5069307;28;20489;-85
2022/05/28 08:13:08;;;;;;;0.00;0.00;;;14.10;99.90;;;;;;5114977;28;20552;-86
2022/05/28 08:15:37;;;;;;;0.10;0.10;;;13.90;99.90;;;;;;5073364;28;20056;-85
2022/05/28 08:18:05;;;;;;;0.10;0.03;;;13.60;99.90;;;;;;5075735;28;20512;-85
2022/05/28 08:23:19;;;;;;;;;;;13.40;99.90;;;;;;5070004;28;20041;-86
2022/05/28 08:25:47;;;;;;;0.00;0.00;;;13.20;99.90;;;;;;5085069;28;19938;-86
2022/05/28 08:28:16;;;;;;;0.08;0.08;;;13.30;99.90;;;;;;5070979;28;20074;-85
2022/05/28 08:30:43;;;;;;;0.10;0.10;;;13.40;99.90;;;;;;5073841;28;20036;-85
2022/05/28 08:33:12;;;;;;;0.03;0.03;;;13.60;99.90;;;;;;5057805;28;20421;-87
2022/05/28 08:35:40;;;;;;;0.00;0.00;;;13.70;99.90;;;;;;5055998;28;20055;-85
2022/05/28 08:38:10;;;;;;;0.00;0.00;;;13.80;99.90;;;;;;5052836;28;20080;-85
2022/05/28 08:40:58;;;;;;;0.10;0.10;;;14.00;99.90;;;;;;5053175;28;20080;-88
2022/05/28 08:43:32;;;;;;;0.20;0.10;;;14.10;99.90;;;;;;5058922;28;20032;-87
2022/05/28 08:45:59;;;;;;;0.00;0.00;;;14.10;99.90;;;;;;5054787;28;20037;-88
2022/05/28 08:48:35;;;;;;;0.17;0.15;;;14.00;99.90;;;;;;5071436;28;20044;-86
2022/05/28 08:51:11;;;;;;;0.00;0.00;;;14.00;99.90;;;;;;5072448;28;20036;-85
2022/05/28 08:53:44;;;;;;;0.20;0.17;;;14.20;99.90;;;;;;5072735;28;20067;-85
2022/05/28 08:56:22;;;;;;;0.10;0.10;;;14.40;99.90;;;;;;5072788;28;20032;-86
2022/05/28 08:58:57;;;;;;;0.10;0.10;;;14.20;99.90;;;;;;5072841;28;20049;-86
2022/05/28 09:01:24;;;;;;;0.10;0.10;;;14.30;99.90;;;;;;5072632;28;20037;-86
2022/05/28 09:04:01;;;;;;;0.00;0.00;;;14.30;99.90;;;;;;5075829;28;20047;-85
2022/05/28 09:06:43;;;;;;;0.00;0.00;;;14.40;99.90;;;;;;5089843;28;20024;-89
2022/05/28 09:09:13;;;;;;;0.00;0.00;;;14.40;99.90;;;;;;5052756;28;20489;-85
2022/05/28 09:11:45;;;;;;;0.00;0.00;;;14.50;99.90;;;;;;5053104;28;20041;-85
2022/05/28 09:14:17;;;;;;;0.00;0.00;;;14.50;99.90;;;;;;5087586;28;20044;-85
2022/05/28 09:16:45;;;;;;;0.17;0.17;;;14.30;99.90;;;;;;5089486;28;20036;-86
2022/05/28 09:19:18;;;;;;;0.08;0.08;;;14.30;99.90;;;;;;5066405;28;21618;-87
2022/05/28 09:21:46;;;;;;;0.08;0.08;;;14.60;99.90;;;;;;5070136;28;20047;-86
2022/05/28 09:24:25;;;;;;;0.00;0.00;;;14.80;99.90;;;;;;5053075;28;20044;-87
2022/05/28 09:27:10;;;;;;;0.10;0.10;;;14.80;99.90;;;;;;5052934;28;20037;-87
2022/05/28 09:29:46;;;;;;;0.08;0.08;;;15.00;99.90;;;;;;5052908;28;20041;-87
2022/05/28 09:32:21;;;;;;;;;;;15.00;99.90;;;;;;5088154;28;20131;-86
2022/05/28 09:34:51;;;;;;;0.00;0.00;;;15.10;99.90;;;;;;5082717;28;19923;-86
2022/05/28 09:37:56;;;;;;;0.00;0.00;;;14.90;99.90;;;;;;5071116;28;20053;-85
2022/05/28 09:40:33;;;;;;;0.10;0.10;;;15.00;99.90;;;;;;5020685;28;20151;-88
2022/05/28 09:43:18;;;;;;;0.38;0.30;;;14.80;99.90;;;;;;5053506;28;20037;-88
2022/05/28 09:46:23;;;;;;;2.35;0.10;;;14.90;99.90;;;;;;5072263;28;20068;-91
2022/05/28 09:49:04;;;;;;;1.35;0.63;;;14.90;99.90;;;;;;5087078;28;20049;-86
2022/05/28 09:51:33;;;;;;;0.13;0.10;;;15.00;99.90;;;;;;5072851;28;20040;-85
2022/05/28 09:54:23;;;;;;;0.20;0.10;;;15.10;99.90;;;;;;5072926;28;20075;-85
2022/05/28 09:57:10;;;;;;;0.10;0.10;;;14.90;99.90;;;;;;5072548;28;20037;-88
2022/05/28 10:00:03;;;;;;;0.00;0.00;;;14.50;99.90;;;;;;5089616;28;20037;-86
2022/05/28 10:02:41;;;;;;;0.00;0.00;;;14.50;99.90;;;;;;5072509;28;20037;-86
2022/05/28 10:05:17;;;;;;;0.00;0.00;;;14.70;99.90;;;;;;5072497;28;20524;-87
2022/05/28 10:07:52;;;;;;;0.10;0.10;;;14.90;99.90;;;;;;5072998;28;20045;-86
2022/05/28 10:10:21;;;;;;;0.10;0.10;;;15.10;99.90;;;;;;5072231;28;20048;-87
2022/05/28 10:12:48;;;;;;;0.00;0.00;;;15.20;99.90;;;;;;5072074;28;20489;-87
2022/05/28 10:15:22;;;;;;;0.00;0.00;;;15.10;99.90;;;;;;5050756;28;20118;-86
2022/05/28 10:18:03;;;;;;;0.10;0.10;;;15.10;99.90;;;;;;5088439;28;20406;-83
2022/05/28 10:20:30;;;;;;;1.98;0.08;;;15.20;99.90;;;;;;5074810;28;20125;-85
2022/05/28 10:23:04;;;;;;;0.20;0.20;;;15.00;99.90;;;;;;5036321;28;20073;-86
2022/05/28 10:25:47;;;;;;;0.00;0.00;;;14.90;99.90;;;;;;5079110;28;20439;-85
2022/05/28 10:28:14;;;;;;;0.10;0.10;;;14.80;99.90;;;;;;5052109;28;20045;-86
2022/05/28 10:30:43;;;;;;;0.20;0.10;;;14.70;99.90;;;;;;5058069;28;20037;-86
2022/05/28 10:33:16;;;;;;;0.10;0.00;;;14.90;99.90;;;;;;5072074;28;20559;-89
2022/05/28 10:35:43;;;;;;;0.10;0.10;;;15.20;99.90;;;;;;5072105;28;20063;-87
2022/05/28 10:38:22;;;;;;;0.10;0.10;;;15.30;99.90;;;;;;5071558;28;20053;-88
2022/05/28 10:40:57;;;;;;;0.13;0.08;;;15.40;99.90;;;;;;5072319;28;20527;-86
2022/05/28 10:43:32;;;;;;;0.00;0.00;;;15.50;99.90;;;;;;5088120;28;20036;-87
2022/05/28 10:46:05;;;;;;;0.03;0.03;;;15.50;98.80;;;;;;5072477;28;20497;-89
2022/05/28 10:49:00;;;;;;;0.00;0.00;;;15.30;98.80;;;;;;5088196;28;20090;-88
2022/05/28 10:51:46;;;;;;;0.13;0.13;;;15.30;99.90;;;;;;5071423;28;20072;-86
2022/05/28 10:54:19;;;;;;;0.00;0.00;;;15.70;99.50;;;;;;5088079;28;20076;-87
2022/05/28 10:56:53;;;;;;;0.00;0.00;;;16.00;99.70;;;;;;5071944;28;20187;-86
2022/05/28 10:59:31;;;;;;;0.00;0.00;;;15.90;97.50;;;;;;5080848;28;20504;-88
2022/05/28 11:02:12;;;;;;;0.00;0.00;;;15.70;97.30;;;;;;5086811;28;20378;-90
2022/05/28 11:05:04;;;;;;;0.00;0.00;;;15.20;95.90;;;;;;5071348;28;20045;-85
2022/05/28 11:08:03;;;;;;;0.00;0.00;;;15.20;98.10;;;;;;5070945;28;20048;-86
2022/05/28 11:10:49;;;;;;;0.00;0.00;;;15.10;96.90;;;;;;5070982;28;20410;-86
2022/05/28 11:13:28;;;;;;;0.52;0.13;;;15.10;97.40;;;;;;5070613;28;20071;-85
2022/05/28 11:16:29;;;;;;;0.08;0.08;;;15.30;98.40;;;;;;5070907;28;20041;-86
2022/05/28 11:19:19;;;;;;;0.10;0.10;;;15.60;99.10;;;;;;5070851;28;20402;-86
2022/05/28 11:21:59;;;;;;;0.00;0.00;;;16.10;99.00;;;;;;5061665;28;20588;-86
2022/05/28 11:24:49;;;;;;;0.10;0.10;;;16.50;99.90;;;;;;5068717;28;20486;-85
2022/05/28 11:27:37;;;;;;;0.00;0.00;;;16.70;98.60;;;;;;5070825;28;20041;-85
2022/05/28 11:30:11;;;;;;;0.00;0.00;;;16.60;97.70;;;;;;5070779;28;20513;-85
2022/05/28 11:32:44;;;;;;;0.05;0.05;;;16.20;96.80;;;;;;5069998;28;20119;-85
2022/05/28 11:35:50;;;;;;;0.00;0.00;;;16.00;97.40;;;;;;5071201;28;20043;-86
2022/05/28 11:38:36;;;;;;;0.00;0.00;;;15.60;97.90;;;;;;5089690;28;20049;-85
2022/05/28 11:41:15;;;;;;;;;;;15.20;98.20;;;;;;5071244;28;20040;-86
2022/05/28 11:43:52;;;;;;;2.30;0.10;;;15.30;99.50;;;;;;5086933;28;19990;-84
2022/05/28 11:46:41;;;;;;;1.08;0.15;;;15.40;99.60;;;;;;5080127;28;20515;-85
2022/05/28 11:52:51;;;;;;;0.00;0.00;;;15.70;98.90;;;;;;5086988;28;20052;-84
2022/05/28 11:55:22;;;;;;;0.00;0.00;;;15.50;98.70;;;;;;5070299;28;20072;-87
2022/05/28 11:57:57;;;;;;;0.00;0.00;;;15.10;98.00;;;;;;5070880;28;20047;-85
2022/05/28 12:00:25;;;;;;;;;;;15.10;98.30;;;;;;5086803;28;20063;-85
2022/05/28 12:02:57;;;;;;;0.13;0.10;;;15.30;97.80;;;;;;5070076;28;20381;-85
2022/05/28 12:05:47;;;;;;;0.20;0.20;;;15.50;97.70;;;;;;5069399;28;20037;-84
2022/05/28 12:08:36;;;;;;;0.00;0.00;;;15.80;98.00;;;;;;5031402;28;20049;-85
2022/05/28 12:11:27;;;;;;;1.30;0.40;;;16.10;96.60;;;;;;5058563;28;20037;-85
2022/05/28 12:13:57;;;;;;;0.00;0.00;;;16.00;96.50;;;;;;5063489;28;20481;-85
2022/05/28 12:16:31;;;;;;;0.10;0.10;;;16.30;95.60;;;;;;5069751;28;20075;-85
2022/05/28 12:19:12;;;;;;;1.35;0.25;;;16.30;96.30;;;;;;5070652;28;20029;-88
2022/05/28 12:21:42;;;;;;;0.73;0.20;;;16.10;95.80;;;;;;5103324;28;20044;-84
2022/05/28 12:24:26;;;;;;;1.23;0.55;;;15.90;96.60;;;;;;5097282;28;20032;-86
2022/05/28 12:29:39;;;;;;;0.00;0.00;;;15.70;98.30;;;;;;5120035;28;20124;-89
2022/05/28 12:32:28;;;;;;;0.20;0.20;;;15.30;99.80;;;;;;5070599;28;20049;-87
2022/05/28 12:35:23;;;;;;;0.08;0.08;;;15.10;99.90;;;;;;5069999;28;20043;-84
2022/05/28 12:38:08;;;;;;;0.00;0.00;;;14.90;99.90;;;;;;5068879;28;20823;-85
2022/05/28 12:40:40;;;;;;;0.00;0.00;;;14.80;99.90;;;;;;5086507;28;20041;-87
2022/05/28 12:43:28;;;;;;;0.08;0.08;;;14.60;99.90;;;;;;5069984;28;20040;-87
2022/05/28 12:45:57;;;;;;;0.00;0.00;;;14.60;99.90;;;;;;5070536;28;20071;-87
2022/05/28 12:48:32;;;;;;;0.10;0.10;;;14.70;99.90;;;;;;5086865;28;20090;-88
2022/05/28 12:51:31;;;;;;;0.20;0.20;;;14.60;99.90;;;;;;5070193;28;20383;-87
2022/05/28 12:54:00;;;;;;;0.15;0.15;;;14.40;99.90;;;;;;5069472;28;20131;-84
2022/05/28 12:56:33;;;;;;;0.10;0.10;;;14.30;99.90;;;;;;5070023;28;20044;-87
2022/05/28 12:59:12;;;;;;;0.00;0.00;;;14.20;99.90;;;;;;5070064;28;20128;-86
2022/05/28 13:01:58;;;;;;;0.00;0.00;;;14.20;99.90;;;;;;5086139;28;20080;-87
2022/05/28 13:04:28;;;;;;;;;;;14.20;99.90;;;;;;5070180;28;20041;-87
2022/05/28 13:06:58;;;;;;;0.38;0.30;;;14.30;99.90;;;;;;5069438;28;19917;-86
2022/05/28 13:09:27;;;;;;;0.00;0.00;;;14.50;99.90;;;;;;5069480;28;20040;-86
2022/05/28 13:12:03;;;;;;;0.00;0.00;;;14.80;99.90;;;;;;5071708;28;20049;-84
2022/05/28 13:14:50;;;;;;;0.10;0.10;;;15.00;99.90;;;;;;5074296;28;20071;-88
2022/05/28 13:17:43;;;;;;;0.28;0.10;;;15.00;99.90;;;;;;5073494;28;20037;-84
2022/05/28 13:20:31;;;;;;;0.00;0.00;;;14.90;99.90;;;;;;5073220;28;20040;-85
2022/05/28 13:23:26;;;;;;;0.00;0.00;;;15.00;99.90;;;;;;5073430;28;20041;-87
2022/05/28 13:26:11;;;;;;;0.05;0.05;;;15.10;99.90;;;;;;5073919;28;20048;-86
2022/05/28 13:28:47;;;;;;;0.15;0.10;;;15.00;99.90;;;;;;5067516;28;20045;-92
2022/05/28 13:31:18;;;;;;;0.00;0.00;;;15.10;99.90;;;;;;5092298;28;20243;-87